This is the latest recevied weather packets stored in our database for station/object F5ZQC-13. If no packets are shown the sender has not sent any weather packets the latest 1 day(s).
| Time | Temp. | Humidity | Pressure | Rain* | Wind** | Luminosity | Snow |
|---|---|---|---|---|---|---|---|
| 1778017308 | 11.67° C | 56% | 1010.4 hPa | 0 mm | 0.45 m/s, 225° | - | - |
| 1778017186 | 11.67° C | 57% | 1010.1 hPa | 0 mm | 0.45 m/s, 303° | - | - |
| 1778016612 | 12.22° C | 56% | 1010.9 hPa | 0 mm | 1.79 m/s, 270° | - | - |
| 1778016575 | 12.22° C | 56% | 1010.9 hPa | 0 mm | 1.79 m/s, 270° | - | - |
| 1778016452 | 11.67° C | 57% | 1010.1 hPa | 0 mm | 1.79 m/s, 270° | - | - |
| 1778016208 | 11.67° C | 59% | 1010.6 hPa | 0 mm | 1.79 m/s, 270° | - | - |
| 1778016086 | 11.67° C | 57% | 1010.7 hPa | 0 mm | 1.34 m/s, 292° | - | - |
| 1778015966 | 11.67° C | 58% | 1010.3 hPa | 0 mm | 0 m/s | - | - |
| 1778015843 | 11.67° C | 58% | 1010.7 hPa | 0 mm | 0 m/s | - | - |
| 1778015719 | 11.67° C | 58% | 1010.4 hPa | 0 mm | 0.89 m/s, 292° | - | - |
| 1778015598 | 11.67° C | 58% | 1010.6 hPa | 0 mm | 0 m/s | - | - |
| 1778015475 | 11.67° C | 57% | 1010.1 hPa | 0 mm | 0 m/s | - | - |
| 1778015352 | 11.67° C | 56% | 1010.5 hPa | 0 mm | 0 m/s | - | - |
| 1778015111 | 11.67° C | 57% | 1010.5 hPa | 0 mm | 1.34 m/s, 225° | - | - |
| 1778014985 | 11.67° C | 57% | 1010.6 hPa | 0 mm | 0.89 m/s, 225° | - | - |
| 1778014741 | 11.67° C | 57% | 1010.4 hPa | 0 mm | 0.45 m/s, 225° | - | - |
| 1778014618 | 11.67° C | 57% | 1010.1 hPa | 0 mm | 0.89 m/s, 225° | - | - |
| 1778014496 | 11.67° C | 57% | 1010.5 hPa | 0 mm | 0 m/s | - | - |
| 1778014251 | 12.22° C | 57% | 1010.5 hPa | 0 mm | 0.45 m/s, 292° | - | - |
| 1778014133 | 12.22° C | 57% | 1010.5 hPa | 0 mm | 0.89 m/s, 292° | - | - |
| 1778014008 | 12.22° C | 57% | 1010.3 hPa | 0 mm | 0.89 m/s, 292° | - | - |
| 1778013763 | 12.22° C | 58% | 1010.1 hPa | 0 mm | 0 m/s | - | - |
| 1778013518 | 11.67° C | 58% | 1010.5 hPa | 0 mm | 0 m/s | - | - |
| 1778013273 | 11.67° C | 57% | 1010.3 hPa | 0 mm | 0.45 m/s, 315° | - | - |
| 1778013029 | 11.67° C | 58% | 1010.4 hPa | 0 mm | 1.34 m/s, 225° | - | - |
* Rain since midnight (hover to see other rain measurements)
** Current wind speed in m/s (hover to see current wind gust speed)